Date,TemperatureHighF,TemperatureAvgF,TemperatureLowF,DewpointHighF,DewpointAvgF,DewpointLowF,HumidityHigh,HumidityAvg,HumidityLow,PressureMaxIn,PressureMinIn,WindSpeedMaxMPH,WindSpeedAvgMPH,GustSpeedMaxMPH,PrecipitationSumIn
2013-1-1,25.9,14.0,2.2,25.0,11.1,-1.0,97,88,76,29.94,29.68,0,0,0,0.00
2013-1-2,14.1,2.9,-9.9,10.0,-0.4,-13.0,91,86,77,30.25,29.90,0,0,0,0.00
2013-1-3,13.2,1.0,-10.0,11.0,-4.7,-99.9,91,80,61,30.26,30.00,0,-11,0,0.00
2013-1-4,28.1,23.3,14.3,25.0,20.9,12.0,96,90,80,29.99,29.78,0,0,0,0.00
2013-1-5,26.2,20.3,11.4,25.0,16.5,9.0,96,85,69,30.26,29.78,0,0,0,0.00
2013-1-6,28.8,23.8,15.5,28.0,21.9,13.0,97,92,86,30.22,29.94,0,0,0,0.00
2013-1-7,29.3,18.8,12.9,29.0,15.6,9.0,97,87,73,30.38,29.96,0,0,0,0.00
2013-1-8,36.6,27.8,16.4,24.0,20.7,12.0,94,76,58,30.40,30.23,0,0,0,0.10
2013-1-9,37.3,30.1,21.7,31.0,25.7,21.0,96,84,74,30.40,29.93,7,0,10,0.00
2013-1-10,33.9,30.8,24.8,31.0,26.3,21.0,97,83,74,30.57,29.98,5,0,10,0.00
2013-1-11,36.7,28.4,18.8,32.0,23.4,17.0,97,82,55,30.56,30.17,2,0,7,0.00
2013-1-12,42.3,35.0,31.7,39.0,34.4,32.0,100,97,88,30.20,30.11,3,0,8,0.12
2013-1-13,47.6,37.9,30.6,46.0,37.1,31.0,100,97,79,30.16,29.94,4,1,6,0.27
2013-1-14,49.2,39.9,29.2,48.0,36.6,24.0,100,88,67,30.25,29.82,5,0,7,0.00
2013-1-15,30.1,27.0,22.7,25.0,20.6,18.0,87,77,66,30.32,30.22,2,0,4,0.00
2013-1-16,28.4,25.3,23.4,27.0,23.4,20.0,98,92,82,30.25,29.79,2,0,4,0.00
2013-1-17,29.2,18.8,5.4,28.0,12.4,-5.0,96,77,46,30.14,29.80,2,0,9,0.00
2013-1-18,12.6,4.8,-5.7,6.0,-6.3,-13.0,76,61,40,30.41,30.13,3,0,8,0.00
2013-1-19,34.2,24.8,12.0,27.0,19.4,4.0,95,80,70,30.33,29.81,3,0,6,0.00
2013-1-20,42.3,29.9,11.0,32.0,22.0,6.0,91,73,55,29.87,29.45,9,1,14,0.02
2013-1-21,17.0,9.5,-1.2,9.0,2.6,-4.0,90,75,50,30.04,29.83,3,0,7,0.00
2013-1-22,16.8,6.2,-6.8,10.0,1.4,-13.0,91,80,68,30.06,29.81,2,0,5,0.00
2013-1-23,-3.7,-9.6,-14.8,-11.0,-17.3,-20.0,83,69,51,30.21,30.05,6,0,7,0.00
2013-1-24,3.1,-6.3,-16.6,-8.0,-15.2,-22.0,83,67,43,30.39,30.17,4,0,10,0.00
2013-1-25,7.4,1.1,-7.7,-3.0,-6.8,-12.0,85,70,54,30.40,30.15,6,0,8,0.00
2013-1-26,10.3,4.7,-2.5,-1.0,-3.8,-7.0,88,69,49,30.30,30.11,3,0,7,0.00
2013-1-27,12.7,5.7,-1.6,1.0,-2.3,-7.0,88,71,55,30.56,30.29,4,0,5,0.00
2013-1-28,17.3,12.0,4.8,16.0,4.3,-9.0,93,73,41,30.52,30.09,3,0,4,0.00
2013-1-29,31.5,22.8,12.1,31.0,20.0,10.0,97,89,74,30.24,30.08,4,0,10,0.03
2013-1-30,54.0,43.0,31.6,52.0,42.1,31.0,100,97,83,30.09,29.37,5,1,15,0.13
2013-1-31,52.2,37.3,20.3,52.0,31.9,7.0,100,82,57,29.44,28.80,10,2,27,0.95
2013-2-1,20.1,14.1,8.3,11.0,3.0,-99.9,87,68,58,30.08,0.00,3,-32,16,0.00
2013-2-2,18.5,11.8,1.8,12.0,5.8,-1.0,91,78,57,30.20,30.07,3,0,8,0.00
2013-2-3,22.4,15.9,8.3,15.0,10.7,6.0,93,80,65,30.07,29.74,2,0,5,0.00
2013-2-4,19.4,13.4,2.5,12.0,5.5,-5.0,92,72,46,29.92,29.70,4,1,11,0.00
2013-2-5,16.8,9.0,-1.9,8.0,-3.2,-8.0,78,59,41,30.06,29.92,3,0,7,0.00
2013-2-6,27.6,17.7,4.7,22.0,10.3,-8.0,87,73,51,30.35,29.93,5,0,8,0.00
2013-2-7,11.5,7.0,-1.0,1.0,-7.3,-14.0,76,54,36,30.57,30.36,4,0,7,0.00
2013-2-8,24.0,18.2,11.7,20.0,13.1,0.0,92,81,54,30.52,29.90,13,2,17,0.00
2013-2-9,12.5,8.1,0.8,10.0,4.8,-2.0,91,86,79,30.34,29.88,8,1,18,0.00
2013-2-10,22.6,12.1,-0.9,12.0,3.8,-4.0,88,71,45,30.51,30.35,2,0,6,0.01
2013-2-11,34.2,27.9,15.2,33.0,22.6,8.0,99,81,48,30.37,29.61,12,1,18,0.00
2013-2-12,34.2,30.8,27.7,33.0,29.1,26.0,99,93,88,29.82,29.59,2,0,6,0.00
2013-2-13,32.6,27.8,24.6,26.0,23.7,21.0,93,84,72,29.85,29.76,1,0,4,0.00
2013-2-14,31.0,26.4,22.1,23.0,20.5,18.0,92,79,63,29.99,29.73,2,0,4,0.00
2013-2-15,41.8,32.7,26.2,31.0,24.6,19.0,87,73,57,29.97,29.88,7,0,10,0.01
2013-2-16,28.9,23.9,15.5,24.0,16.8,6.0,94,75,61,29.96,29.86,2,0,6,0.00
2013-2-17,15.8,10.8,5.5,8.0,1.8,-99.9,87,73,63,29.85,29.56,4,-25,10,0.00
2013-2-18,16.9,9.0,0.5,2.0,-3.3,-9.0,82,60,33,30.20,29.77,6,1,11,0.00
2013-2-19,41.7,27.2,8.7,32.0,12.6,-7.0,96,57,29,30.21,29.59,6,1,20,0.05
2013-2-20,32.7,23.8,18.2,32.0,21.5,16.0,97,90,77,29.71,29.53,4,0,4,0.00
2013-2-21,18.3,13.4,7.3,17.0,10.1,4.0,93,86,72,30.34,29.71,0,0,0,0.00
2013-2-22,31.7,23.6,15.8,26.0,19.1,-99.9,94,86,70,30.48,30.31,0,-10,0,0.00
2013-2-23,32.6,28.6,24.9,29.0,25.9,22.0,97,89,83,30.31,29.94,0,0,0,0.00
2013-2-24,33.0,29.9,28.0,31.0,28.9,27.0,98,96,92,29.94,29.78,0,0,0,0.01
2013-2-25,33.6,29.8,27.6,30.0,28.5,27.0,98,94,84,30.25,29.92,0,0,0,0.00
2013-2-26,41.7,31.6,27.0,33.0,28.1,24.0,96,87,70,30.34,30.18,4,0,10,0.13
2013-2-27,37.6,32.7,28.0,32.0,27.3,23.0,92,80,74,30.16,29.65,13,4,31,0.00
2013-2-28,41.9,34.8,27.8,32.0,30.2,26.0,98,84,68,29.65,29.56,9,1,15,0.47
2013-3-1,31.7,29.1,26.6,31.0,27.8,26.0,98,95,89,29.72,29.56,1,0,2,0.00
2013-3-2,32.2,26.7,22.8,28.0,25.2,22.0,97,93,81,29.73,29.69,1,0,4,0.00
2013-3-3,29.0,24.3,21.3,26.0,22.8,20.0,97,94,87,29.71,29.64,0,0,0,0.00
2013-3-4,26.9,21.6,19.5,22.0,19.4,18.0,95,91,83,29.88,29.66,0,0,0,0.00
2013-3-5,35.8,27.3,19.3,31.0,24.9,18.0,97,91,78,30.12,29.88,2,0,3,0.03
2013-3-6,35.2,31.0,26.3,30.0,26.3,20.0,94,83,67,30.23,30.12,10,2,14,0.00
2013-3-7,34.5,28.2,24.0,26.0,23.4,21.0,90,82,70,30.21,30.12,5,1,10,0.00
2013-3-8,37.9,29.8,26.0,25.0,22.6,21.0,86,75,57,30.31,30.11,4,1,8,0.00
2013-3-9,47.0,34.5,23.4,26.0,21.0,14.0,86,62,27,30.35,30.27,5,1,6,0.12
2013-3-10,51.6,38.6,26.3,28.0,23.6,21.0,82,58,33,30.36,30.18,5,1,8,0.07
2013-3-11,49.9,41.2,33.8,33.0,29.1,27.0,82,63,44,30.23,30.04,5,1,12,0.00
2013-3-12,46.9,42.7,37.1,47.0,40.9,31.0,99,93,73,30.05,29.68,9,2,19,0.43
2013-3-13,36.8,33.4,26.9,36.0,31.4,26.0,99,92,73,29.79,29.72,2,0,5,0.06
2013-3-14,28.3,22.1,10.9,26.0,16.7,5.0,98,81,62,29.86,29.69,4,0,10,0.00
2013-3-15,31.3,19.3,6.6,23.0,12.0,4.0,93,76,43,29.88,29.63,4,0,9,0.00
2013-3-16,25.0,20.3,12.4,20.0,13.6,9.0,94,76,56,29.92,29.72,3,0,7,0.00
2013-3-17,22.8,14.1,7.9,10.0,5.4,-2.0,90,70,47,30.38,29.91,4,1,9,0.00
2013-3-18,29.9,19.2,5.8,11.0,2.2,-1.0,76,50,27,30.48,30.21,4,1,5,0.00
2013-3-19,29.4,25.3,19.4,23.0,19.3,2.0,93,79,34,30.20,29.74,13,4,21,0.00
2013-3-20,29.8,23.4,18.1,25.0,20.2,16.0,95,87,71,29.73,29.66,2,0,9,0.00
2013-3-21,33.8,24.3,14.7,21.0,15.7,10.0,91,71,43,29.76,29.64,4,0,11,0.14
2013-3-22,31.0,24.6,15.9,22.0,17.5,13.0,92,76,53,29.73,29.64,3,0,8,0.00
2013-3-23,31.4,25.7,19.8,24.0,21.6,18.0,95,84,67,29.79,29.62,5,1,14,0.00
2013-3-24,34.9,29.0,24.4,25.0,23.7,22.0,92,81,64,29.87,29.77,4,0,6,0.00
2013-3-25,42.1,32.8,23.0,27.0,24.0,21.0,94,72,49,29.82,29.59,6,1,11,0.03
2013-3-26,41.2,33.7,26.3,27.0,22.9,20.0,82,66,42,29.80,29.61,5,1,12,0.00
2013-3-27,42.5,33.6,27.4,32.0,27.4,22.0,98,79,57,29.93,29.77,5,0,8,0.00
2013-3-28,40.4,34.8,31.2,36.0,32.6,31.0,99,92,76,30.06,29.92,2,0,3,0.17
2013-3-29,44.3,37.4,33.9,36.0,32.3,29.0,97,82,61,30.07,30.00,2,0,6,0.00
2013-3-30,46.2,36.8,29.7,31.0,23.3,13.0,96,63,31,30.11,30.04,4,1,8,0.00
2013-3-31,49.9,40.2,29.5,35.0,21.3,13.0,94,49,30,30.10,29.77,6,2,18,0.00
2013-4-1,47.6,35.8,24.6,40.0,33.4,17.0,99,91,73,29.76,29.49,5,0,9,0.33
2013-4-2,30.0,23.1,17.1,21.0,16.7,14.0,92,77,58,29.86,29.71,4,1,10,0.00
2013-4-3,34.5,26.7,18.8,21.0,14.6,9.0,92,64,35,30.16,29.86,5,1,14,0.00
2013-4-4,44.8,33.2,20.0,21.0,14.8,10.0,74,50,25,30.26,29.95,4,1,9,0.01
2013-4-5,47.4,38.2,26.6,28.0,21.8,17.0,79,53,37,29.95,29.74,5,1,10,0.00
2013-4-6,31.6,25.4,17.3,20.0,9.1,4.0,89,53,31,30.34,29.90,5,1,11,0.00
2013-4-7,48.8,39.3,27.2,36.0,20.2,7.0,67,47,35,30.33,29.89,12,3,16,0.00
2013-4-8,48.0,42.1,37.0,37.0,32.1,28.0,84,68,49,30.12,29.90,7,1,10,0.00
2013-4-9,45.8,41.3,35.1,43.0,38.0,30.0,98,88,58,30.06,29.85,10,1,17,0.10
2013-4-10,45.1,40.2,36.8,43.0,39.2,37.0,100,96,86,30.00,29.91,1,0,5,0.27
2013-4-11,40.8,35.4,30.1,37.0,24.6,16.0,99,69,41,30.18,29.90,3,1,7,0.00
2013-4-12,32.2,30.6,28.6,31.0,25.4,18.0,97,81,61,30.19,29.85,12,1,19,0.02
2013-4-13,38.7,33.1,29.9,37.0,32.5,29.0,99,97,90,29.93,29.81,1,0,4,0.10
2013-4-14,40.4,34.8,30.5,39.0,33.8,30.0,99,96,80,30.23,29.90,4,0,5,0.18
2013-4-15,52.9,41.1,28.1,37.0,30.6,27.0,99,71,38,30.38,30.24,7,1,11,0.09
2013-4-16,53.9,47.0,37.8,52.0,41.6,33.0,99,82,59,30.32,29.94,7,1,13,0.17
2013-4-17,51.2,43.0,34.0,47.0,32.3,25.0,97,68,45,30.36,30.05,6,1,10,0.00
2013-4-18,53.6,44.2,33.6,41.0,30.5,22.0,85,59,41,30.40,30.00,9,2,18,0.00
2013-4-19,71.3,60.5,51.2,59.0,52.8,42.0,95,76,59,30.01,29.46,13,4,21,0.17
2013-4-20,55.4,42.4,32.0,54.0,33.7,19.0,98,74,44,30.20,29.59,5,1,10,0.33
2013-4-21,41.2,32.7,25.1,22.0,18.6,15.0,79,58,36,30.72,30.21,5,1,7,0.00
2013-4-22,50.8,38.9,27.2,19.0,15.6,9.0,68,41,23,30.77,30.60,7,2,15,0.00
2013-4-23,48.7,37.7,25.7,38.0,27.8,14.0,92,68,47,30.59,30.18,4,1,8,0.00
2013-4-24,70.5,52.0,32.0,46.0,37.8,31.0,99,65,25,30.17,29.67,6,1,10,0.00
2013-4-25,58.5,46.7,36.5,49.0,32.1,23.0,74,58,40,30.30,29.67,7,1,13,0.00
2013-4-26,53.7,43.7,33.1,36.0,28.1,21.0,81,56,36,30.45,30.30,5,1,8,0.00
2013-4-27,58.2,46.7,34.9,37.0,30.8,24.0,91,59,28,30.45,30.31,4,1,9,0.00
2013-4-28,66.8,53.5,38.0,36.0,32.2,29.0,71,47,28,30.33,30.17,7,1,10,0.00
2013-4-29,69.8,55.7,43.0,41.0,37.2,34.0,74,52,29,30.21,30.12,11,1,18,0.00
2013-4-30,70.6,58.8,49.1,45.0,39.1,33.0,70,50,31,30.30,30.20,6,1,10,0.00
2013-5-1,75.3,60.2,43.8,39.0,34.6,31.0,68,41,23,30.43,30.31,6,1,7,0.00
2013-5-2,76.8,60.8,47.0,43.0,38.1,33.0,69,45,27,30.42,30.32,5,1,12,0.00
2013-5-3,67.8,53.4,37.2,42.0,37.1,31.0,78,57,34,30.50,30.34,5,1,7,0.00
2013-5-4,71.0,58.3,44.8,46.0,37.2,27.0,87,52,19,30.37,30.19,7,1,11,0.00
2013-5-5,73.3,57.1,39.8,40.0,36.8,33.0,86,51,25,30.25,30.14,4,1,9,0.00
2013-5-6,75.3,60.3,44.4,43.0,34.0,21.0,75,42,15,30.20,30.07,4,1,9,0.00
2013-5-7,78.4,65.1,50.8,50.0,37.3,24.0,67,40,14,30.12,30.02,3,1,7,0.00
2013-5-8,77.9,64.2,53.7,55.0,52.3,46.0,88,67,35,30.14,30.03,6,2,11,0.00
2013-5-9,73.4,61.8,55.0,59.0,54.9,52.0,99,80,49,30.02,29.84,6,1,11,0.14
2013-5-10,70.2,60.3,52.9,58.0,54.5,52.0,99,83,55,29.94,29.83,3,0,5,0.00
2013-5-11,64.4,58.5,52.8,61.0,57.1,53.0,100,95,83,29.83,29.61,4,1,9,0.78
2013-5-12,61.6,50.7,37.2,52.0,45.5,29.0,100,83,54,29.72,29.55,3,0,5,0.01
2013-5-13,48.1,40.0,35.3,32.0,30.1,28.0,86,68,53,30.05,29.72,2,0,12,0.00
2013-5-14,52.4,41.4,30.1,34.0,28.7,24.0,98,65,35,30.08,29.99,5,1,8,0.01
2013-5-15,62.9,47.8,34.7,49.0,34.1,24.0,97,64,31,30.04,29.62,5,1,13,0.14
2013-5-16,71.4,56.7,46.1,50.0,43.7,35.0,100,67,27,29.82,29.58,3,0,12,0.01
2013-5-17,58.0,48.8,42.5,44.0,39.9,37.0,96,73,46,30.23,29.82,7,0,8,0.00
2013-5-18,67.4,55.8,42.4,44.0,39.7,34.0,87,58,29,30.31,30.22,5,0,6,0.00
2013-5-19,68.8,55.9,45.2,52.0,47.0,42.0,99,75,41,30.29,30.11,5,1,11,0.25
2013-5-20,62.9,55.7,50.4,61.0,55.3,50.0,100,98,89,30.12,29.98,4,0,6,0.13
2013-5-21,72.0,58.5,50.4,65.0,56.4,50.0,100,93,78,30.00,29.82,5,0,15,0.40
2013-5-22,74.4,58.3,49.2,66.0,56.4,49.0,100,94,72,29.91,29.81,3,0,7,0.34
2013-5-23,77.4,65.3,54.8,65.0,61.1,55.0,100,87,61,29.83,29.71,2,0,7,0.00
2013-5-24,63.7,51.3,42.2,61.0,51.0,42.0,100,98,91,29.90,29.60,0,0,0,1.33
2013-5-25,42.0,38.3,32.3,42.0,38.2,32.0,100,99,98,29.90,29.82,0,0,0,1.39
2013-5-26,42.3,36.7,31.8,42.0,35.1,-99.9,100,97,93,30.09,29.79,0,-12,0,1.04
2013-5-27,58.9,46.7,33.7,44.0,37.8,33.0,100,75,41,30.21,30.08,0,0,0,0.01
2013-5-28,68.8,57.0,42.4,45.0,40.3,36.0,82,57,32,30.25,30.14,0,0,6,0.00
2013-5-29,61.2,55.9,49.4,58.0,52.8,41.0,100,90,60,30.15,29.96,2,0,7,0.16
2013-5-30,78.1,67.9,58.8,65.0,61.4,59.0,100,82,55,30.08,29.98,0,0,0,0.00
2013-5-31,85.3,74.3,63.1,68.0,63.3,60.0,91,70,50,30.06,29.89,0,0,0,0.00
2013-6-1,89.1,76.0,67.6,68.0,64.4,59.0,86,69,43,29.92,29.78,0,0,1,0.00
2013-6-2,87.0,71.0,60.5,72.0,65.1,60.0,100,83,52,29.80,29.60,0,0,0,0.30
2013-6-3,74.6,62.9,49.9,63.0,56.3,46.0,100,81,52,29.79,29.71,1,0,5,0.00
2013-6-4,57.3,49.5,43.0,46.0,43.1,40.0,91,79,60,30.11,29.80,4,0,6,0.00
2013-6-5,64.2,54.0,39.7,44.0,40.8,36.0,95,64,36,30.21,30.10,4,0,6,0.00
2013-6-6,70.9,58.6,48.3,51.0,44.5,37.0,90,61,40,30.19,30.08,3,0,11,0.00
2013-6-7,54.6,51.1,47.0,52.0,48.8,42.0,98,91,77,30.09,29.89,6,0,9,0.52
2013-6-8,59.6,54.8,49.8,58.0,54.0,49.0,100,97,89,30.02,29.73,3,0,6,0.35
2013-6-9,67.3,59.0,53.1,59.0,54.9,52.0,100,87,63,30.19,30.02,2,0,4,0.00
2013-6-10,71.5,60.3,50.5,58.0,53.9,50.0,98,81,47,30.21,29.98,3,0,6,0.00
2013-6-11,59.5,55.1,51.9,57.0,53.5,52.0,99,94,87,29.98,29.57,5,1,11,0.95
2013-6-12,58.1,53.6,50.6,55.0,52.5,51.0,100,96,85,29.85,29.57,4,0,11,0.12
2013-6-13,69.2,56.8,47.9,56.0,52.2,48.0,100,86,50,29.83,29.69,3,0,5,0.01
2013-6-14,70.7,60.7,51.3,57.0,51.6,45.0,100,75,42,29.80,29.68,6,0,7,0.00
2013-6-15,69.9,58.7,45.9,51.0,44.9,41.0,90,63,37,29.93,29.80,4,1,7,0.00
2013-6-16,73.2,60.2,52.6,58.0,52.4,44.0,99,77,47,29.91,29.68,4,0,8,0.26
2013-6-17,72.6,60.4,52.5,63.0,58.3,53.0,100,93,66,29.89,29.74,2,0,7,0.16
2013-6-18,62.5,55.9,49.0,55.0,51.1,45.0,99,85,60,29.97,29.88,3,0,5,0.01
2013-6-19,66.2,55.3,44.8,50.0,45.7,43.0,98,72,44,30.18,29.95,4,1,5,0.00
2013-6-20,70.2,58.7,46.0,51.0,46.8,43.0,90,67,39,30.26,30.18,3,1,8,0.00
2013-6-21,75.0,63.6,53.2,56.0,50.8,45.0,85,65,46,30.24,30.19,3,1,5,0.00
2013-6-22,78.1,65.6,60.6,67.0,59.9,51.0,100,82,63,30.21,30.09,4,0,5,0.76
2013-6-23,80.2,66.9,61.6,73.0,64.3,-99.9,100,94,75,30.11,29.97,3,-10,8,0.76
2013-6-24,82.8,71.2,64.9,72.0,67.4,64.0,100,89,64,29.97,29.86,2,0,5,0.02
2013-6-25,83.1,69.6,61.4,73.0,66.7,61.0,100,91,64,29.88,29.71,3,0,6,0.69
2013-6-26,68.6,65.2,62.4,68.0,65.2,62.0,100,100,95,29.82,29.72,3,0,4,0.07
2013-6-27,79.0,69.2,60.9,70.0,65.4,61.0,100,88,66,29.80,29.72,4,0,7,0.01
2013-6-28,73.7,65.3,59.9,67.0,62.4,58.0,98,90,78,29.71,29.44,10,2,18,0.18
2013-6-29,77.7,67.7,62.8,70.0,65.2,63.0,100,92,70,29.65,29.47,5,0,10,0.21
2013-6-30,80.6,70.8,62.2,69.0,64.7,62.0,100,83,53,29.89,29.65,3,0,7,0.30
2013-7-1,73.8,67.7,63.0,69.0,66.4,63.0,100,96,84,30.04,29.89,1,0,7,0.50
2013-7-2,71.8,66.6,62.4,69.0,66.1,62.0,100,98,90,30.14,30.01,1,0,3,0.69
2013-7-3,80.4,69.9,60.9,74.0,67.8,61.0,100,94,75,30.15,30.09,1,0,7,0.17
2013-7-4,83.7,74.0,66.3,75.0,70.9,66.0,100,91,67,30.16,30.04,3,0,6,0.01
2013-7-5,85.4,75.3,66.7,74.0,70.2,66.0,99,85,65,30.10,29.99,2,0,6,0.00
2013-7-6,78.8,71.6,65.3,72.0,67.9,62.0,97,88,70,30.02,29.96,1,0,6,0.00
2013-7-7,80.8,72.0,63.9,70.0,65.3,61.0,94,80,63,30.00,29.89,4,0,4,0.00
2013-7-8,75.4,68.4,65.4,71.0,67.5,65.0,100,97,82,30.02,29.89,2,0,3,0.53
2013-7-9,77.3,69.7,64.5,71.0,66.8,64.0,100,91,74,30.06,29.98,2,0,6,0.01
2013-7-10,76.0,67.5,63.0,69.0,66.3,63.0,100,96,78,30.00,29.74,5,1,12,0.81
2013-7-11,72.0,66.6,57.8,69.0,65.4,57.0,100,96,80,29.98,29.71,2,0,4,0.46
2013-7-12,76.6,66.0,56.0,63.0,58.3,52.0,98,78,46,30.18,29.98,3,0,5,0.00
2013-7-13,80.4,69.4,59.5,67.0,63.4,59.0,98,82,62,30.27,30.19,2,0,5,0.00
2013-7-14,80.9,71.6,63.7,71.0,67.5,63.0,100,87,69,30.28,30.19,2,0,4,0.00
2013-7-15,87.2,74.3,65.7,74.0,67.4,63.0,99,80,59,30.20,30.09,2,0,4,0.00
2013-7-16,83.7,74.2,65.4,71.0,67.0,64.0,96,79,58,30.16,30.12,2,0,5,0.00
2013-7-17,88.5,75.3,64.7,73.0,68.3,63.0,100,80,56,30.15,29.93,3,0,11,1.59
2013-7-18,83.4,73.0,66.0,73.0,69.3,66.0,100,89,62,29.99,29.90,3,0,5,0.30
2013-7-19,86.5,75.7,66.1,78.0,71.4,66.0,100,87,69,29.90,29.62,4,0,9,0.11
2013-7-20,81.8,70.1,61.5,71.0,66.6,59.0,100,89,69,29.78,29.59,2,0,5,0.06
2013-7-21,74.9,64.8,56.5,63.0,58.2,54.0,97,80,57,30.01,29.79,2,0,5,0.00
2013-7-22,75.1,64.7,54.7,66.0,60.3,53.0,95,86,71,30.00,29.86,4,0,7,0.00
2013-7-23,68.9,64.7,62.2,68.0,64.2,62.0,100,98,93,29.85,29.54,1,0,6,0.94
2013-7-24,70.7,61.2,51.0,69.0,58.7,47.0,100,92,75,30.00,29.55,3,0,9,0.03
2013-7-25,67.8,58.2,45.3,60.0,52.7,44.0,96,82,64,30.12,30.01,4,0,6,0.00
2013-7-26,70.2,62.3,56.1,63.0,58.8,55.0,98,88,74,30.09,29.97,2,0,5,0.00
2013-7-27,78.5,66.2,56.2,64.0,59.5,56.0,100,81,50,30.03,29.96,2,0,5,0.00
2013-7-28,80.0,68.8,59.4,67.0,62.2,58.0,97,81,52,29.98,29.91,5,1,8,0.00
2013-7-29,79.3,67.5,59.6,68.0,63.7,57.0,100,88,60,30.03,29.93,2,0,6,0.16
2013-7-30,71.8,63.0,55.9,60.0,56.8,54.0,99,81,54,30.09,30.03,2,0,7,0.00
2013-7-31,76.2,64.6,53.9,60.0,56.2,53.0,98,76,47,30.13,30.02,4,1,4,0.00
2013-8-1,79.0,64.6,58.3,64.0,59.6,55.0,100,85,51,30.02,29.80,7,1,11,0.33
2013-8-2,74.7,64.2,56.4,66.0,60.6,56.0,100,89,63,29.82,29.74,2,0,7,0.08
2013-8-3,72.6,61.4,55.0,62.0,57.7,55.0,100,88,63,29.81,29.74,2,0,5,0.07
2013-8-4,68.4,58.1,51.8,63.0,56.4,52.0,100,94,74,29.89,29.78,3,0,5,0.17
2013-8-5,65.2,55.7,49.5,53.0,49.0,42.0,100,80,50,30.05,29.88,3,1,7,0.00
2013-8-6,72.5,60.1,48.8,58.0,52.9,47.0,95,78,52,30.14,30.05,4,0,5,0.00
2013-8-7,75.4,64.7,54.4,62.0,56.2,52.0,93,75,53,30.15,30.03,6,1,12,0.00
2013-8-8,78.2,68.6,61.0,69.0,64.0,57.0,93,86,71,30.03,29.95,4,0,10,0.00
2013-8-9,70.4,66.9,62.8,70.0,66.7,63.0,100,99,93,29.96,29.72,2,0,6,2.52
2013-8-10,71.1,63.0,51.9,66.0,57.3,49.0,100,83,55,30.00,29.75,2,0,8,0.00
2013-8-11,71.2,60.5,50.4,57.0,52.9,48.0,95,78,53,30.06,29.98,3,1,4,0.00
2013-8-12,75.4,64.1,53.6,61.0,56.0,52.0,97,77,51,30.01,29.89,3,1,5,0.00
2013-8-13,66.3,62.0,58.4,64.0,60.0,55.0,100,93,83,29.89,29.66,2,0,5,0.36
2013-8-14,65.9,57.4,49.8,61.0,56.1,50.0,100,96,72,29.93,29.64,2,0,6,0.12
2013-8-15,67.9,57.3,47.5,56.0,52.0,48.0,100,84,58,30.09,29.93,3,0,5,0.01
2013-8-16,73.8,61.1,51.0,59.0,54.1,49.0,97,80,52,30.20,30.08,4,1,5,0.07
2013-8-17,72.5,60.7,52.8,62.0,54.9,50.0,100,83,57,30.28,30.20,3,1,5,0.00
2013-8-18,71.8,62.1,53.9,62.0,56.1,50.0,94,82,59,30.28,30.07,1,0,4,0.00
2013-8-19,76.2,65.7,56.0,63.0,59.2,55.0,97,81,58,30.07,29.94,2,0,6,0.00
2013-8-20,78.4,67.8,58.8,64.0,60.6,58.0,96,79,55,30.08,29.98,2,1,5,0.00
2013-8-21,82.5,70.1,61.2,68.0,63.4,60.0,97,80,57,30.12,29.98,4,1,5,0.00
2013-8-22,83.3,70.9,62.8,68.0,63.8,60.0,99,80,55,29.99,29.77,4,0,6,0.06
2013-8-23,71.9,61.1,50.1,64.0,54.9,48.0,100,82,49,30.17,29.81,4,0,8,0.00
2013-8-24,71.4,58.3,46.5,55.0,49.3,45.0,95,74,46,30.34,30.17,3,0,6,0.00
2013-8-25,74.1,61.8,50.4,57.0,52.7,47.0,92,74,49,30.36,30.14,2,0,5,0.00
2013-8-26,68.0,62.9,57.7,65.0,61.8,57.0,100,96,81,30.16,29.88,2,0,3,0.14
2013-8-27,78.6,69.1,63.3,68.0,65.2,63.0,100,88,67,29.90,29.83,3,0,5,0.00
2013-8-28,83.1,68.9,61.7,70.0,65.0,62.0,100,89,59,29.95,29.83,2,0,7,0.99
2013-8-29,71.9,63.9,58.6,66.0,62.4,59.0,100,95,74,30.04,29.94,1,0,3,0.82
2013-8-30,75.3,66.0,60.1,69.0,64.2,60.0,100,94,75,30.00,29.77,2,0,6,0.07
2013-8-31,77.7,68.1,63.8,70.0,66.6,64.0,100,95,73,29.79,29.74,4,0,6,0.13
2013-9-1,77.5,69.5,65.0,69.0,66.6,65.0,100,91,70,29.85,29.75,2,0,6,0.04
2013-9-2,73.6,68.3,62.7,70.0,67.0,63.0,100,95,85,29.83,29.67,4,0,7,1.04
2013-9-3,69.8,62.8,57.8,65.0,61.4,58.0,100,95,82,29.77,29.67,2,0,5,0.01
2013-9-4,72.4,61.5,55.4,60.0,57.6,54.0,100,88,56,29.90,29.77,2,0,5,0.24
2013-9-5,61.9,52.3,41.6,56.0,46.9,40.0,100,83,49,30.15,29.86,7,0,8,0.07
2013-9-6,61.0,49.9,39.1,49.0,42.9,38.0,98,79,51,30.25,30.08,2,1,5,0.00
2013-9-7,72.8,57.9,48.8,55.0,50.3,45.0,96,77,41,30.07,29.82,1,0,7,0.00
2013-9-8,55.8,50.8,40.6,53.0,47.5,39.0,99,89,69,30.08,29.73,4,0,6,0.13
2013-9-9,62.7,51.2,39.2,50.0,43.5,38.0,97,77,46,30.21,30.08,5,0,6,0.00
2013-9-10,67.0,59.2,50.4,67.0,57.8,45.0,100,95,83,30.11,30.02,1,0,3,0.11
2013-9-11,86.5,73.7,64.9,76.0,69.6,65.0,100,88,60,30.03,29.87,5,0,8,0.33
2013-9-12,76.1,66.6,61.9,72.0,65.8,62.0,100,97,82,29.94,29.62,3,0,5,2.64
2013-9-13,62.4,57.4,51.4,62.0,57.5,51.0,100,100,99,29.79,29.58,2,0,6,1.05
2013-9-14,52.6,50.2,44.9,52.0,50.0,45.0,100,99,95,30.08,29.78,2,0,4,0.08
2013-9-15,62.4,52.2,41.9,54.0,48.4,42.0,100,88,63,30.14,30.00,3,0,5,0.00
2013-9-16,53.4,47.7,36.8,53.0,45.5,34.0,100,92,77,30.29,30.00,3,0,5,0.19
2013-9-17,57.4,45.0,33.9,46.0,39.7,33.0,99,83,54,30.46,30.30,2,0,5,0.00
2013-9-18,64.6,52.4,41.9,51.0,45.2,41.0,96,79,46,30.34,30.15,3,1,7,0.00
2013-9-19,70.7,58.0,48.1,56.0,49.1,41.0,95,75,36,30.16,30.04,2,1,5,0.00
2013-9-20,76.1,61.9,50.6,58.0,53.1,49.0,95,75,48,30.09,29.95,4,1,8,0.00
2013-9-21,69.9,61.5,51.6,60.0,54.9,50.0,94,80,53,29.95,29.62,9,2,17,0.00
2013-9-22,63.1,54.8,44.6,61.0,53.2,43.0,100,94,86,29.81,29.50,5,0,12,0.48
2013-9-23,45.8,42.8,40.2,43.0,40.2,38.0,97,90,83,30.03,29.82,2,0,6,0.00
2013-9-24,54.1,45.7,40.9,45.0,41.8,38.0,95,87,66,30.02,29.90,4,0,6,0.00
2013-9-25,53.1,47.9,43.4,48.0,45.1,43.0,98,90,81,30.02,29.92,2,0,4,0.00
2013-9-26,57.6,50.5,41.9,50.0,46.5,41.0,99,87,69,30.17,30.02,4,0,8,0.00
2013-9-27,63.5,54.3,49.1,55.0,50.1,47.0,96,86,62,30.29,30.17,4,0,5,0.00
2013-9-28,51.2,50.3,49.1,50.0,49.6,49.0,99,97,96,30.30,30.29,1,0,2,0.00
2013-10-12,67.7,57.0,47.7,54.0,50.6,47.0,97,81,59,30.37,30.27,2,0,5,0.00
2013-10-13,57.2,49.8,43.4,50.0,47.6,43.0,98,92,76,30.42,30.35,3,0,5,0.00
2013-10-14,56.2,48.7,41.5,53.0,47.9,41.0,100,97,81,30.36,30.25,3,0,4,0.15
2013-10-15,62.2,54.0,46.2,57.0,52.0,46.0,100,93,78,30.29,30.14,3,0,7,0.00
2013-10-16,63.2,54.3,49.2,52.0,49.5,47.0,99,85,65,30.14,29.84,5,0,9,0.00
2013-10-17,61.5,54.6,49.4,56.0,50.1,46.0,100,85,65,29.84,29.69,2,0,5,0.02
2013-10-18,55.7,49.7,42.0,52.0,47.4,37.0,100,92,75,29.87,29.55,2,0,6,0.27
2013-10-19,59.7,49.6,40.4,46.0,41.4,36.0,92,75,50,29.93,29.69,6,0,10,0.01
2013-10-20,52.6,45.6,37.7,46.0,39.1,33.0,98,79,55,29.98,29.62,4,0,11,0.08
2013-10-21,57.3,47.4,35.5,43.0,38.9,34.0,93,74,56,30.08,29.91,5,-52,11,0.00
2013-10-22,52.0,45.7,32.9,48.0,41.7,33.0,99,86,66,29.90,29.66,5,0,18,0.11
2013-10-23,46.8,38.0,31.8,38.0,32.8,30.0,99,82,59,29.77,29.61,3,-146,5,0.01
2013-10-24,42.3,35.8,29.1,34.0,31.4,26.0,98,85,59,29.86,29.65,3,-143,8,0.03
2013-10-25,36.7,33.8,31.9,34.0,30.4,27.0,100,88,70,30.12,29.86,1,-172,5,0.02
2013-10-26,41.0,35.6,28.0,34.0,29.4,26.0,91,79,60,30.13,29.84,6,-126,11,0.00
2013-10-27,44.0,15.7,-90.0,37.0,9.8,-94.0,90,77,68,30.09,29.78,2,-156,6,0.01
2013-10-28,42.7,34.5,25.8,37.0,28.8,22.0,92,80,65,30.37,30.04,7,-145,7,0.01
2013-10-29,36.8,29.2,22.9,26.0,21.2,19.0,87,73,50,30.47,30.38,3,-157,6,0.00
2013-10-30,39.8,33.3,28.3,32.0,25.0,16.0,91,72,57,30.38,30.22,2,-161,4,0.00
2013-10-31,52.1,43.5,33.8,52.0,41.3,32.0,100,92,78,30.27,29.71,5,-138,13,0.35
2013-11-1,61.8,55.1,45.7,60.0,51.6,41.0,100,88,63,29.70,29.26,5,-260,19,0.17
2013-11-2,55.5,26.3,-90.0,45.0,22.2,-91.0,97,85,67,29.87,29.58,3,-135,6,0.11
2013-11-3,33.6,28.5,21.4,33.0,21.8,16.0,97,77,54,30.48,29.88,5,-161,8,0.00
2013-11-4,32.3,25.3,17.7,20.0,16.5,13.0,88,70,46,30.72,30.48,4,-156,8,0.00
2013-11-5,42.4,33.1,24.4,30.0,23.6,18.0,82,69,50,30.72,30.50,7,-159,9,0.00
2013-11-6,53.4,43.7,33.9,43.0,37.0,30.0,87,78,56,30.49,29.92,6,-166,11,0.00
2013-11-7,53.4,44.2,31.3,51.0,41.2,27.0,99,89,78,29.92,29.68,2,-212,10,0.38
2013-11-8,34.5,31.2,27.8,29.0,26.7,23.0,89,83,76,30.07,29.80,1,-290,6,0.00
2013-11-9,34.9,10.0,-90.0,28.0,3.5,-92.0,86,76,62,30.25,30.07,2,-156,8,0.00
2013-11-10,40.2,34.4,30.1,39.0,33.2,28.0,99,95,85,30.06,29.71,3,-221,9,0.06
2013-11-11,36.3,32.1,29.1,33.0,29.2,27.0,97,89,73,30.07,29.84,2,-308,7,0.00
2013-11-12,24.9,22.2,19.9,24.0,18.6,16.0,95,85,79,30.23,29.98,2,-173,5,0.00
2013-11-13,23.9,20.8,15.5,20.0,15.0,11.0,88,78,62,30.30,30.09,3,-322,5,0.00
2013-11-14,37.2,31.9,24.0,30.0,25.2,19.0,83,76,69,30.09,30.04,2,-177,7,0.00
2013-11-15,47.1,21.2,-90.0,26.0,4.8,-96.0,66,51,35,30.29,30.09,3,-136,7,0.12
2013-11-16,51.0,42.4,37.7,30.0,26.6,20.0,68,55,38,30.32,30.26,5,-187,7,0.03
2013-11-17,52.5,45.3,37.8,52.0,40.0,28.0,98,82,62,30.30,29.77,9,-175,18,0.06
2013-11-18,56.8,37.4,38.0,54.0,11.2,-99.9,98,62,61,29.77,29.41,7,-218,26,0.00
2013-11-19,38.1,28.7,24.0,31.0,22.0,18.0,83,76,67,30.31,29.58,5,-201,10,0.00
2013-11-20,30.2,24.4,19.3,18.0,14.6,12.0,82,67,47,30.68,30.31,3,-178,7,0.00
2013-11-21,37.5,29.7,20.9,23.0,15.7,11.0,73,57,39,30.68,30.39,3,-180,4,0.00
2013-11-22,38.4,33.4,30.6,38.0,30.5,23.0,100,90,70,30.38,29.80,1,-193,5,0.07
2013-11-23,38.4,28.7,16.8,38.0,25.4,13.0,100,88,66,29.92,29.70,5,-284,8,0.08
2013-11-24,16.4,12.3,7.7,13.0,6.5,1.0,87,77,68,30.20,29.77,5,-210,14,0.00
2013-11-25,25.9,13.8,4.5,15.0,4.3,-1.0,83,67,45,30.41,30.21,4,-197,9,0.00
2013-11-26,32.1,28.1,24.9,31.0,22.1,12.0,96,79,54,30.31,30.06,4,-180,7,0.00
2013-11-27,51.5,10.5,-90.0,51.0,10.2,-90.0,100,98,93,30.05,29.42,5,-212,24,0.55
2013-11-28,28.3,18.6,9.5,27.0,16.4,7.0,96,90,78,30.42,29.52,1,-315,6,0.55
2013-11-29,17.3,11.7,7.7,11.0,8.4,5.0,92,86,72,30.79,30.42,1,-252,3,0.00
2013-11-30,22.5,15.9,7.5,19.0,11.0,5.0,91,81,63,30.83,30.40,6,-270,11,0.00
2013-12-1,34.9,27.9,21.0,31.0,24.5,16.0,98,87,78,30.39,30.07,1,-291,8,0.00
2013-12-2,34.7,29.6,24.2,34.0,29.3,24.0,100,98,95,30.07,29.94,1,-191,2,0.00
2013-12-3,33.7,30.6,28.7,33.0,30.5,28.0,100,99,97,29.98,29.92,1,-166,3,0.00
2013-12-4,32.1,28.1,24.6,28.0,25.9,23.0,100,91,80,30.22,29.98,2,-179,3,0.00
2013-12-5,48.8,37.1,25.5,49.0,35.5,24.0,100,94,86,30.22,29.86,7,-188,18,0.11
2013-12-6,48.6,37.2,29.1,48.0,35.9,24.0,100,95,81,30.12,29.88,1,-252,6,0.02
2013-12-7,29.1,24.6,17.3,26.0,17.9,11.0,88,76,60,30.40,30.07,4,-209,8,0.02
2013-12-8,21.2,18.1,13.5,13.0,10.2,9.0,81,71,61,30.61,30.51,3,-207,7,0.00
2013-12-9,33.3,27.3,19.3,31.0,22.0,12.0,93,80,70,30.51,29.87,6,-225,16,0.00
2013-12-10,32.5,24.6,14.9,30.0,20.5,11.0,94,84,71,29.90,29.75,2,-218,4,0.00
2013-12-11,22.0,16.5,8.9,17.0,12.9,6.0,93,86,74,30.16,29.91,7,-208,8,0.00
2013-12-12,11.9,5.5,2.6,99.9,25.0,0.0,100,85,69,30.19,29.89,5,-210,7,0.00
2013-12-13,14.3,6.2,-6.1,10.0,1.9,-9.0,87,82,70,30.43,29.80,2,-343,3,0.00
2013-12-14,13.0,0.2,-8.8,10.0,-4.9,-12.0,90,79,65,30.65,30.27,10,-281,15,0.00
2013-12-15,25.1,17.4,12.9,24.0,16.1,10.0,95,94,88,30.24,29.55,11,-276,22,0.00
2013-12-16,15.9,7.3,-7.3,15.0,4.2,-11.0,94,87,77,30.26,29.69,6,-218,8,0.00
2013-12-17,8.0,1.6,-8.0,6.0,-2.9,-12.0,90,82,63,30.30,30.10,3,-166,5,0.00
2013-12-18,25.1,15.7,6.5,19.0,12.8,4.0,96,88,71,30.10,29.97,2,-200,2,0.00
2013-12-19,29.9,25.9,20.4,27.0,22.3,18.0,92,86,78,30.11,29.94,3,-193,7,0.00
2013-12-20,39.2,0.0,-90.0,39.0,-1.2,-91.0,100,94,82,30.15,30.01,5,-270,24,0.17
2013-12-21,50.3,43.9,37.9,48.0,43.6,38.0,100,98,91,30.02,29.81,4,-326,8,0.21
2013-12-22,42.2,39.6,34.4,42.0,39.7,34.0,100,100,100,29.97,29.64,4,-431,7,0.02
2013-12-23,40.4,34.0,31.9,40.0,33.9,32.0,100,100,100,30.12,29.95,3,-543,4,0.14
2013-12-24,31.9,20.6,4.2,32.0,18.2,1.0,100,90,78,30.26,30.07,3,-354,5,0.14
2013-12-25,13.0,5.8,-1.2,7.0,1.0,-4.0,87,81,71,30.55,30.25,4,-189,5,0.00
2013-12-26,24.8,18.7,12.6,23.0,15.1,5.0,97,86,67,30.48,30.13,7,-199,11,0.00
2013-12-27,26.1,-11.7,-90.0,22.0,-13.6,-90.0,100,92,76,30.38,30.18,2,-294,4,0.00
2013-12-28,33.5,27.1,17.9,30.0,24.2,17.0,95,88,80,30.33,30.00,1,-562,3,0.00
2013-12-29,39.1,33.4,31.0,34.0,29.7,-99.9,99,89,75,30.04,29.59,3,-343,4,0.28
2013-12-30,32.4,1.0,-90.0,32.0,-0.9,-90.0,100,92,83,30.26,29.56,3,-242,5,0.00
2013-12-31,11.2,4.0,-3.7,10.0,1.0,-7.0,93,87,71,30.25,30.07,1,-231,2,0.00
2014-1-1,14.7,7.2,-1.1,9.0,4.2,-5.0,93,87,78,30.45,30.17,1,-223,3,0.00
2014-1-2,2.6,-0.7,-3.6,0.0,-3.9,-7.0,89,87,83,30.44,30.00,1,-271,2,0.00